Time,TemperatureF,DewpointF,PressureIn,WindDirection,WindDirectionDegrees,WindSpeedMPH,WindSpeedGustMPH,Humidity,HourlyPrecipIn,Conditions,Clouds,dailyrainin,SolarRadiationWatts/m^2,SoftwareType,DateUTC
2013-03-02 00:01:00,57.0,24.0,-100.00,SE,133,1.0,4.0,28,-99.99,,,-99.99,0.000000,,2013-03-02 08:01:00,
2013-03-02 00:11:00,55.0,26.0,-100.00,South,190,1.0,3.0,32,-99.99,,,-99.99,0.000000,,2013-03-02 08:11:00,
2013-03-02 00:21:00,54.0,25.0,-100.00,SE,140,0.0,3.0,32,-99.99,,,-99.99,0.000000,,2013-03-02 08:21:00,
2013-03-02 00:32:00,56.0,25.0,-100.00,SSE,164,2.0,4.0,30,-99.99,,,-99.99,0.000000,,2013-03-02 08:32:00,
2013-03-02 00:42:00,55.0,26.0,-100.00,SSW,212,2.0,3.0,32,-99.99,,,-99.99,0.000000,,2013-03-02 08:42:00,
2013-03-02 00:52:00,55.0,26.0,-100.00,SSW,210,2.0,3.0,33,-99.99,,,-99.99,0.000000,,2013-03-02 08:52:00,
2013-03-02 01:01:00,55.0,26.0,-100.00,South,188,1.0,3.0,32,-99.99,,,-99.99,0.000000,,2013-03-02 09:01:00,
2013-03-02 01:11:00,53.0,26.0,-100.00,WSW,243,1.0,3.0,34,-99.99,,,-99.99,0.000000,,2013-03-02 09:11:00,
2013-03-02 01:21:00,52.0,25.0,-100.00,WSW,246,1.0,2.0,35,-99.99,,,-99.99,0.000000,,2013-03-02 09:21:00,
2013-03-02 01:31:00,52.0,25.0,-100.00,WSW,246,1.0,2.0,35,-99.99,,,-99.99,0.000000,,2013-03-02 09:31:00,
2013-03-02 01:42:00,54.0,26.0,-100.00,SW,227,2.0,3.0,34,-99.99,,,-99.99,0.000000,,2013-03-02 09:42:00,
2013-03-02 01:51:00,54.0,26.0,-100.00,SW,227,2.0,3.0,34,-99.99,,,-99.99,0.000000,,2013-03-02 09:51:00,
2013-03-02 02:01:00,54.0,26.0,-100.00,SSE,168,0.0,2.0,33,-99.99,,,-99.99,0.000000,,2013-03-02 10:01:00,
2013-03-02 02:15:00,53.0,27.0,-100.00,SSW,208,1.0,2.0,36,-99.99,,,-99.99,0.000000,,2013-03-02 10:15:00,
2013-03-02 02:21:00,52.0,27.0,-100.00,SSW,197,1.0,2.0,37,-99.99,,,-99.99,0.000000,,2013-03-02 10:21:00,
2013-03-02 02:31:00,52.0,27.0,-100.00,SSW,197,1.0,2.0,37,-99.99,,,-99.99,0.000000,,2013-03-02 10:31:00,
2013-03-02 02:42:00,54.0,26.0,-100.00,South,182,0.0,2.0,34,-99.99,,,-99.99,0.000000,,2013-03-02 10:42:00,
2013-03-02 02:51:00,53.0,27.0,-100.00,ESE,112,1.0,1.0,36,-99.99,,,-99.99,0.000000,,2013-03-02 10:51:00,
2013-03-02 03:01:00,53.0,27.0,-100.00,ESE,112,1.0,1.0,36,-99.99,,,-99.99,0.000000,,2013-03-02 11:01:00,
2013-03-02 03:11:00,50.0,27.0,-100.00,South,190,1.0,2.0,40,-99.99,,,-99.99,0.000000,,2013-03-02 11:11:00,
2013-03-02 03:21:00,51.0,27.0,-100.00,SSW,204,1.0,2.0,39,-99.99,,,-99.99,0.000000,,2013-03-02 11:21:00,
2013-03-02 03:31:00,51.0,27.0,-100.00,SSW,204,1.0,2.0,39,-99.99,,,-99.99,0.000000,,2013-03-02 11:31:00,
2013-03-02 03:41:00,51.0,27.0,-100.00,SSW,196,2.0,3.0,39,-99.99,,,-99.99,0.000000,,2013-03-02 11:41:00,
2013-03-02 03:52:00,51.0,27.0,-100.00,SSW,196,2.0,3.0,39,-99.99,,,-99.99,0.000000,,2013-03-02 11:52:00,
2013-03-02 04:02:00,51.0,27.0,-100.00,SSW,194,1.0,3.0,38,-99.99,,,-99.99,0.000000,,2013-03-02 12:02:00,
2013-03-02 04:11:00,51.0,27.0,-100.00,SSW,200,2.0,4.0,40,-99.99,,,-99.99,0.000000,,2013-03-02 12:11:00,
2013-03-02 04:21:00,51.0,27.0,-100.00,SSW,207,1.0,3.0,40,-99.99,,,-99.99,0.000000,,2013-03-02 12:21:00,
2013-03-02 04:32:00,50.0,28.0,-100.00,SSW,205,1.0,3.0,41,-99.99,,,-99.99,0.000000,,2013-03-02 12:32:00,
2013-03-02 04:43:00,50.0,28.0,-100.00,SW,236,2.0,3.0,41,-99.99,,,-99.99,0.000000,,2013-03-02 12:43:00,
2013-03-02 04:53:00,51.0,27.0,-100.00,WSW,242,3.0,5.0,39,-99.99,,,-99.99,0.000000,,2013-03-02 12:53:00,
2013-03-02 05:01:00,51.0,27.0,-100.00,WSW,242,3.0,5.0,39,-99.99,,,-99.99,0.000000,,2013-03-02 13:01:00,
2013-03-02 05:10:00,49.0,28.0,-100.00,East,99,2.0,3.0,43,-99.99,,,-99.99,0.000000,,2013-03-02 13:10:00,
2013-03-02 05:11:00,52.0,27.0,-100.00,WSW,238,3.0,4.0,38,-99.99,,,-99.99,0.000000,,2013-03-02 13:11:00,
2013-03-02 05:21:00,52.0,27.0,-100.00,WSW,238,3.0,4.0,38,-99.99,,,-99.99,0.000000,,2013-03-02 13:21:00,
2013-03-02 05:31:00,51.0,27.0,-100.00,WSW,249,2.0,4.0,39,-99.99,,,-99.99,0.000000,,2013-03-02 13:31:00,
2013-03-02 05:41:00,50.0,28.0,-100.00,West,266,1.0,3.0,42,-99.99,,,-99.99,0.000000,,2013-03-02 13:41:00,
2013-03-02 05:52:00,49.0,28.0,-100.00,East,99,2.0,3.0,43,-99.99,,,-99.99,0.000000,,2013-03-02 13:52:00,
2013-03-02 06:01:00,49.0,28.0,-100.00,East,99,2.0,3.0,43,-99.99,,,-99.99,0.000000,,2013-03-02 14:01:00,
2013-03-02 06:30:00,48.0,29.0,-100.00,SSW,202,2.0,3.0,48,-99.99,,,-99.99,18.000000,,2013-03-02 14:30:00,
2013-03-02 06:42:00,47.0,28.0,-100.00,East,98,2.0,3.0,47,-99.99,,,-99.99,0.000000,,2013-03-02 14:42:00,
2013-03-02 06:52:00,47.0,28.0,-100.00,ESE,120,1.0,2.0,46,-99.99,,,-99.99,5.000000,,2013-03-02 14:52:00,
2013-03-02 07:01:00,47.0,28.0,-100.00,ESE,120,1.0,2.0,46,-99.99,,,-99.99,5.000000,,2013-03-02 15:01:00,
2013-03-02 07:11:00,48.0,29.0,-100.00,SSW,202,2.0,3.0,48,-99.99,,,-99.99,18.000000,,2013-03-02 15:11:00,
2013-03-02 07:21:00,48.0,29.0,-100.00,SSW,202,2.0,3.0,48,-99.99,,,-99.99,18.000000,,2013-03-02 15:21:00,
2013-03-02 08:11:00,59.0,29.0,-100.00,SE,139,0.0,2.0,32,-99.99,,,-99.99,245.000000,,2013-03-02 16:11:00,
2013-03-02 08:21:00,58.0,29.0,-100.00,NW,326,1.0,2.0,33,-99.99,,,-99.99,283.000000,,2013-03-02 16:21:00,
2013-03-02 08:31:00,58.0,29.0,-100.00,NW,326,1.0,2.0,33,-99.99,,,-99.99,283.000000,,2013-03-02 16:31:00,
2013-03-02 08:41:00,58.0,30.0,-100.00,NNW,340,1.0,2.0,34,-99.99,,,-99.99,357.000000,,2013-03-02 16:41:00,
2013-03-02 08:51:00,61.0,29.0,-100.00,ENE,72,0.0,2.0,30,-99.99,,,-99.99,394.000000,,2013-03-02 16:51:00,
2013-03-02 09:01:00,62.0,29.0,-100.00,ENE,71,1.0,2.0,28,-99.99,,,-99.99,428.000000,,2013-03-02 17:01:00,
2013-03-02 09:11:00,62.0,29.0,-100.00,ENE,76,1.0,2.0,28,-99.99,,,-99.99,464.000000,,2013-03-02 17:11:00,
2013-03-02 09:21:00,62.0,29.0,-100.00,NE,41,1.0,3.0,28,-99.99,,,-99.99,499.000000,,2013-03-02 17:21:00,
2013-03-02 09:32:00,63.0,29.0,-100.00,ENE,62,2.0,4.0,27,-99.99,,,-99.99,536.000000,,2013-03-02 17:32:00,
2013-03-02 09:41:00,64.0,28.0,-100.00,NE,53,1.0,4.0,26,-99.99,,,-99.99,575.000000,,2013-03-02 17:41:00,
2013-03-02 09:52:00,63.0,28.0,-100.00,NW,309,2.0,4.0,27,-99.99,,,-99.99,625.000000,,2013-03-02 17:52:00,
2013-03-02 10:01:00,63.0,28.0,-100.00,NW,318,2.0,4.0,27,-99.99,,,-99.99,563.000000,,2013-03-02 18:01:00,
2013-03-02 10:11:00,63.0,28.0,-100.00,NW,325,2.0,6.0,26,-99.99,,,-99.99,670.000000,,2013-03-02 18:11:00,
2013-03-02 10:22:00,64.0,28.0,-100.00,NW,316,2.0,5.0,26,-99.99,,,-99.99,659.000000,,2013-03-02 18:22:00,
2013-03-02 10:31:00,64.0,28.0,-100.00,NNW,335,3.0,5.0,26,-99.99,,,-99.99,661.000000,,2013-03-02 18:31:00,
2013-03-02 10:42:00,65.0,29.0,-100.00,NNW,328,3.0,6.0,26,-99.99,,,-99.99,654.000000,,2013-03-02 18:42:00,
2013-03-02 10:51:00,65.0,28.0,-100.00,NW,322,2.0,4.0,25,-99.99,,,-99.99,744.000000,,2013-03-02 18:51:00,
2013-03-02 11:01:00,66.0,29.0,-100.00,NW,320,2.0,5.0,25,-99.99,,,-99.99,764.000000,,2013-03-02 19:01:00,
2013-03-02 11:11:00,66.0,28.0,-100.00,NNW,336,3.0,6.0,24,-99.99,,,-99.99,709.000000,,2013-03-02 19:11:00,
2013-03-02 11:21:00,67.0,29.0,-100.00,NW,322,2.0,7.0,24,-99.99,,,-99.99,824.000000,,2013-03-02 19:21:00,
2013-03-02 11:31:00,69.0,28.0,-100.00,NNW,346,2.0,5.0,22,-99.99,,,-99.99,868.000000,,2013-03-02 19:31:00,
2013-03-02 11:42:00,68.0,29.0,-100.00,WNW,292,2.0,5.0,23,-99.99,,,-99.99,834.000000,,2013-03-02 19:42:00,
2013-03-02 11:50:00,68.0,28.0,-100.00,NW,315,3.0,6.0,22,-99.99,,,-99.99,691.000000,,2013-03-02 19:50:00,
2013-03-02 11:52:00,68.0,29.0,-100.00,NW,314,3.0,5.0,23,-99.99,,,-99.99,714.000000,,2013-03-02 19:52:00,
2013-03-02 12:01:00,67.0,28.0,-100.00,NW,312,2.0,5.0,23,-99.99,,,-99.99,506.000000,,2013-03-02 20:01:00,
2013-03-02 12:11:00,69.0,28.0,-100.00,NNW,332,3.0,7.0,22,-99.99,,,-99.99,891.000000,,2013-03-02 20:11:00,
2013-03-02 12:21:00,69.0,28.0,-100.00,NNW,332,3.0,7.0,22,-99.99,,,-99.99,891.000000,,2013-03-02 20:21:00,
2013-03-02 12:32:00,68.0,28.0,-100.00,NW,315,3.0,6.0,22,-99.99,,,-99.99,691.000000,,2013-03-02 20:32:00,
2013-03-02 12:42:00,68.0,28.0,-100.00,NW,315,3.0,6.0,22,-99.99,,,-99.99,691.000000,,2013-03-02 20:42:00,
2013-03-02 13:20:00,74.0,26.0,-100.00,NE,38,2.0,5.0,17,-99.99,,,-99.99,813.000000,,2013-03-02 21:20:00,
2013-03-02 13:22:00,72.0,27.0,-100.00,NNW,336,2.0,5.0,19,-99.99,,,-99.99,882.000000,,2013-03-02 21:22:00,
2013-03-02 13:31:00,72.0,27.0,-100.00,NNW,342,2.0,6.0,19,-99.99,,,-99.99,832.000000,,2013-03-02 21:31:00,
2013-03-02 13:42:00,73.0,27.0,-100.00,NNE,32,2.0,5.0,18,-99.99,,,-99.99,851.000000,,2013-03-02 21:42:00,
2013-03-02 13:52:00,73.0,27.0,-100.00,NW,318,1.0,5.0,18,-99.99,,,-99.99,831.000000,,2013-03-02 21:52:00,
2013-03-02 14:01:00,73.0,27.0,-100.00,NW,318,1.0,5.0,18,-99.99,,,-99.99,831.000000,,2013-03-02 22:01:00,
2013-03-02 14:11:00,74.0,26.0,-100.00,NE,38,2.0,5.0,17,-99.99,,,-99.99,813.000000,,2013-03-02 22:11:00,
2013-03-02 15:01:00,75.0,26.0,-100.00,NNE,16,2.0,6.0,16,-99.99,,,-99.99,671.000000,,2013-03-02 23:01:00,
2013-03-02 15:11:00,75.0,26.0,-100.00,East,95,3.0,6.0,16,-99.99,,,-99.99,655.000000,,2013-03-02 23:11:00,
2013-03-02 15:21:00,75.0,26.0,-100.00,East,86,3.0,7.0,16,-99.99,,,-99.99,615.000000,,2013-03-02 23:21:00,
2013-03-02 15:32:00,75.0,26.0,-100.00,East,86,3.0,7.0,16,-99.99,,,-99.99,615.000000,,2013-03-02 23:32:00,
2013-03-02 15:42:00,77.0,25.0,-100.00,NNE,26,2.0,5.0,15,-99.99,,,-99.99,568.000000,,2013-03-02 23:42:00,
2013-03-02 15:52:00,77.0,27.0,-100.00,West,278,2.0,5.0,16,-99.99,,,-99.99,476.000000,,2013-03-02 23:52:00,
2013-03-02 16:02:00,76.0,27.0,-100.00,NNW,348,3.0,7.0,16,-99.99,,,-99.99,458.000000,,2013-03-03 00:02:00,
2013-03-02 16:11:00,77.0,26.0,-100.00,NNE,17,3.0,7.0,15,-99.99,,,-99.99,507.000000,,2013-03-03 00:11:00,
2013-03-02 16:22:00,77.0,25.0,-100.00,SE,136,3.0,7.0,15,-99.99,,,-99.99,369.000000,,2013-03-03 00:22:00,
2013-03-02 16:32:00,77.0,25.0,-100.00,SE,136,3.0,7.0,15,-99.99,,,-99.99,369.000000,,2013-03-03 00:32:00,
2013-03-02 16:42:00,76.0,27.0,-100.00,ESE,109,3.0,7.0,16,-99.99,,,-99.99,301.000000,,2013-03-03 00:42:00,
2013-03-02 16:52:00,75.0,26.0,-100.00,ESE,118,4.0,8.0,16,-99.99,,,-99.99,157.000000,,2013-03-03 00:52:00,
2013-03-02 17:01:00,75.0,27.0,-100.00,ESE,117,5.0,8.0,17,-99.99,,,-99.99,162.000000,,2013-03-03 01:01:00,
2013-03-02 17:11:00,75.0,27.0,-100.00,ESE,117,4.0,8.0,17,-99.99,,,-99.99,182.000000,,2013-03-03 01:11:00,
2013-03-02 17:21:00,75.0,27.0,-100.00,ESE,111,6.0,10.0,17,-99.99,,,-99.99,210.000000,,2013-03-03 01:21:00,
2013-03-02 17:31:00,74.0,28.0,-100.00,ESE,115,5.0,8.0,18,-99.99,,,-99.99,112.000000,,2013-03-03 01:31:00,
2013-03-02 17:41:00,74.0,28.0,-100.00,ESE,109,7.0,10.0,18,-99.99,,,-99.99,49.000000,,2013-03-03 01:41:00,
2013-03-02 17:52:00,73.0,27.0,-100.00,ESE,114,5.0,8.0,18,-99.99,,,-99.99,33.000000,,2013-03-03 01:52:00,
2013-03-02 18:01:00,72.0,27.0,-100.00,SE,137,2.0,5.0,18,-99.99,,,-99.99,23.000000,,2013-03-03 02:01:00,
2013-03-02 18:11:00,72.0,27.0,-100.00,SE,146,2.0,3.0,19,-99.99,,,-99.99,11.000000,,2013-03-03 02:11:00,
2013-03-02 18:21:00,71.0,27.0,-100.00,SSE,151,2.0,6.0,19,-99.99,,,-99.99,4.000000,,2013-03-03 02:21:00,
2013-03-02 18:31:00,71.0,27.0,-100.00,SSE,151,2.0,6.0,19,-99.99,,,-99.99,4.000000,,2013-03-03 02:31:00,
2013-03-02 18:41:00,71.0,27.0,-100.00,ESE,116,4.0,6.0,19,-99.99,,,-99.99,0.000000,,2013-03-03 02:41:00,
2013-03-02 18:52:00,71.0,27.0,-100.00,SE,124,3.0,6.0,19,-99.99,,,-99.99,0.000000,,2013-03-03 02:52:00,
2013-03-02 19:01:00,71.0,26.0,-100.00,SE,128,3.0,6.0,19,-99.99,,,-99.99,0.000000,,2013-03-03 03:01:00,
2013-03-02 19:11:00,70.0,27.0,-100.00,SE,138,3.0,6.0,20,-99.99,,,-99.99,0.000000,,2013-03-03 03:11:00,
2013-03-02 19:21:00,70.0,27.0,-100.00,SE,141,3.0,5.0,20,-99.99,,,-99.99,0.000000,,2013-03-03 03:21:00,
2013-03-02 19:31:00,70.0,27.0,-100.00,South,173,2.0,5.0,20,-99.99,,,-99.99,0.000000,,2013-03-03 03:31:00,
2013-03-02 19:41:00,69.0,26.0,-100.00,SE,143,2.0,5.0,20,-99.99,,,-99.99,0.000000,,2013-03-03 03:41:00,
2013-03-02 19:51:00,69.0,27.0,-100.00,SE,141,2.0,5.0,20,-99.99,,,-99.99,0.000000,,2013-03-03 03:51:00,
2013-03-02 20:01:00,69.0,26.0,-100.00,SE,144,2.0,7.0,20,-99.99,,,-99.99,0.000000,,2013-03-03 04:01:00,
2013-03-02 20:11:00,69.0,26.0,-100.00,SE,142,2.0,4.0,20,-99.99,,,-99.99,0.000000,,2013-03-03 04:11:00,
2013-03-02 20:21:00,69.0,26.0,-100.00,South,189,1.0,3.0,20,-99.99,,,-99.99,0.000000,,2013-03-03 04:21:00,
2013-03-02 20:31:00,67.0,28.0,-100.00,NW,304,1.0,2.0,23,-99.99,,,-99.99,0.000000,,2013-03-03 04:31:00,
2013-03-02 20:41:00,66.0,28.0,-100.00,WNW,286,1.0,2.0,24,-99.99,,,-99.99,0.000000,,2013-03-03 04:41:00,
2013-03-02 20:51:00,66.0,27.0,-100.00,North,350,0.0,1.0,23,-99.99,,,-99.99,0.000000,,2013-03-03 04:51:00,
2013-03-02 21:01:00,66.0,27.0,-100.00,NNW,340,0.0,1.0,23,-99.99,,,-99.99,0.000000,,2013-03-03 05:01:00,
2013-03-02 21:11:00,66.0,28.0,-100.00,North,1,0.0,1.0,24,-99.99,,,-99.99,0.000000,,2013-03-03 05:11:00,
2013-03-02 21:22:00,66.0,28.0,-100.00,SSE,149,1.0,4.0,24,-99.99,,,-99.99,0.000000,,2013-03-03 05:22:00,
2013-03-02 21:32:00,67.0,26.0,-100.00,South,187,3.0,6.0,21,-99.99,,,-99.99,0.000000,,2013-03-03 05:32:00,
2013-03-02 21:42:00,68.0,25.0,-100.00,South,186,4.0,7.0,20,-99.99,,,-99.99,0.000000,,2013-03-03 05:42:00,
2013-03-02 21:52:00,68.0,25.0,-100.00,South,189,4.0,8.0,20,-99.99,,,-99.99,0.000000,,2013-03-03 05:52:00,
2013-03-02 22:01:00,67.0,26.0,-100.00,SSE,164,4.0,8.0,21,-99.99,,,-99.99,0.000000,,2013-03-03 06:01:00,
2013-03-02 22:11:00,66.0,26.0,-100.00,SE,143,3.0,6.0,22,-99.99,,,-99.99,0.000000,,2013-03-03 06:11:00,
2013-03-02 22:21:00,66.0,24.0,-100.00,South,181,4.0,9.0,20,-99.99,,,-99.99,0.000000,,2013-03-03 06:21:00,
2013-03-02 22:31:00,67.0,23.0,-100.00,South,188,5.0,10.0,19,-99.99,,,-99.99,0.000000,,2013-03-03 06:31:00,
2013-03-02 22:40:00,65.0,23.0,-100.00,South,170,1.0,4.0,20,-99.99,,,-99.99,0.000000,,2013-03-03 06:40:00,
2013-03-02 22:42:00,67.0,23.0,-100.00,SSW,199,4.0,9.0,19,-99.99,,,-99.99,0.000000,,2013-03-03 06:42:00,
2013-03-02 22:52:00,66.0,23.0,-100.00,SSW,203,4.0,9.0,19,-99.99,,,-99.99,0.000000,,2013-03-03 06:52:00,
2013-03-02 23:01:00,66.0,23.0,-100.00,SSW,195,3.0,7.0,20,-99.99,,,-99.99,0.000000,,2013-03-03 07:01:00,
2013-03-02 23:11:00,66.0,23.0,-100.00,South,172,3.0,7.0,20,-99.99,,,-99.99,0.000000,,2013-03-03 07:11:00,
2013-03-02 23:21:00,66.0,23.0,-100.00,South,172,3.0,7.0,20,-99.99,,,-99.99,0.000000,,2013-03-03 07:21:00,
2013-03-02 23:31:00,65.0,23.0,-100.00,South,170,1.0,4.0,20,-99.99,,,-99.99,0.000000,,2013-03-03 07:31:00,
2013-03-02 23:51:00,65.0,21.0,-100.00,SSE,167,3.0,7.0,19,-99.99,,,-99.99,0.000000,,2013-03-03 07:51:00,